createdAt,value
2018-12-11T00:00:56.415Z,4.60
2018-12-11T00:03:23.883Z,5.10
2018-12-11T00:05:51.328Z,7.13
2018-12-11T00:08:18.772Z,8.17
2018-12-11T00:10:46.240Z,7.23
2018-12-11T00:13:13.683Z,6.47
2018-12-11T00:15:41.157Z,4.97
2018-12-11T00:18:08.607Z,5.67
2018-12-11T00:20:36.049Z,9.07
2018-12-11T00:23:03.547Z,8.37
2018-12-11T00:25:30.996Z,10.37
2018-12-11T00:27:58.439Z,4.53
2018-12-11T00:30:25.877Z,9.93
2018-12-11T00:32:53.346Z,6.53
2018-12-11T00:35:20.832Z,6.63
2018-12-11T00:37:48.304Z,9.10
2018-12-11T00:40:15.759Z,7.20
2018-12-11T00:42:43.204Z,9.63
2018-12-11T00:45:10.676Z,7.10
2018-12-11T00:47:38.120Z,7.37
2018-12-11T00:50:06.712Z,9.20
2018-12-11T00:52:34.156Z,7.77
2018-12-11T00:55:01.609Z,8.77
2018-12-11T00:57:29.080Z,7.67
2018-12-11T00:59:56.516Z,11.30
2018-12-11T01:02:24.044Z,10.90
2018-12-11T01:04:51.496Z,11.90
2018-12-11T01:07:18.956Z,12.00
2018-12-11T01:09:46.455Z,13.87
2018-12-11T01:12:13.911Z,9.40
2018-12-11T01:14:41.364Z,8.93
2018-12-11T01:17:08.832Z,12.27
2018-12-11T01:19:36.307Z,11.37
2018-12-11T01:22:03.867Z,8.97
2018-12-11T01:24:31.310Z,8.90
2018-12-11T01:26:58.783Z,8.63
2018-12-11T01:29:26.232Z,9.97
2018-12-11T01:31:53.695Z,9.60
2018-12-11T01:34:21.145Z,8.77
2018-12-11T01:36:48.588Z,10.83
2018-12-11T01:39:16.036Z,11.60
2018-12-11T01:41:43.507Z,14.43
2018-12-11T01:44:10.940Z,8.13
2018-12-11T01:46:38.490Z,11.53
2018-12-11T01:49:06.028Z,11.67
2018-12-11T01:51:33.473Z,9.50
2018-12-11T01:54:00.923Z,7.37
2018-12-11T01:56:28.359Z,7.23
2018-12-11T01:58:55.804Z,11.30
2018-12-11T02:01:23.267Z,8.60
2018-12-11T02:03:50.951Z,8.70
2018-12-11T02:06:18.387Z,8.70
2018-12-11T02:08:45.897Z,8.17
2018-12-11T02:11:13.311Z,7.83
2018-12-11T02:13:40.788Z,5.40
2018-12-11T02:16:08.253Z,4.80
2018-12-11T02:18:43.467Z,6.13
2018-12-11T02:21:12.296Z,5.13
2018-12-11T02:23:39.967Z,7.83
2018-12-11T02:26:07.435Z,8.83
2018-12-11T02:28:34.878Z,5.77
2018-12-11T02:31:02.365Z,8.57
2018-12-11T02:33:29.814Z,4.63
2018-12-11T02:35:57.288Z,4.73
2018-12-11T02:38:24.779Z,4.57
2018-12-11T02:40:52.223Z,4.90
2018-12-11T02:43:20.008Z,5.77
2018-12-11T02:45:47.449Z,4.53
2018-12-11T02:48:14.884Z,4.50
2018-12-11T02:50:42.350Z,5.13
2018-12-11T02:53:09.887Z,6.20
2018-12-11T02:55:37.344Z,3.90
2018-12-11T02:58:04.788Z,6.33
2018-12-11T03:00:32.382Z,5.23
2018-12-11T03:02:59.806Z,6.10
2018-12-11T03:05:27.379Z,6.87
2018-12-11T03:07:54.817Z,4.07
2018-12-11T03:10:22.306Z,4.63
2018-12-11T03:12:49.768Z,4.70
2018-12-11T03:15:17.244Z,7.23
2018-12-11T03:17:44.664Z,5.67
2018-12-11T03:20:12.152Z,6.40
2018-12-11T03:22:39.584Z,8.50
2018-12-11T03:25:07.051Z,5.77
2018-12-11T03:27:34.508Z,7.10
2018-12-11T03:30:01.959Z,5.43
2018-12-11T03:32:29.488Z,7.77
2018-12-11T03:34:56.937Z,5.73
2018-12-11T03:37:24.384Z,6.80
2018-12-11T03:39:51.848Z,9.37
2018-12-11T03:42:19.320Z,7.83
2018-12-11T03:44:46.759Z,4.23
2018-12-11T03:47:14.199Z,4.93
2018-12-11T03:49:41.645Z,6.60
2018-12-11T03:52:09.092Z,4.47
2018-12-11T03:54:36.539Z,6.50
2018-12-11T03:57:03.985Z,7.03
2018-12-11T03:59:31.443Z,5.43
2018-12-11T04:01:58.891Z,9.73
2018-12-11T04:04:26.364Z,6.50
2018-12-11T04:06:53.858Z,5.17
2018-12-11T04:09:21.296Z,5.50
2018-12-11T04:11:48.721Z,7.43
2018-12-11T04:14:16.223Z,4.00
2018-12-11T04:16:43.667Z,5.60
2018-12-11T04:19:11.196Z,6.40
2018-12-11T04:21:38.639Z,6.17
2018-12-11T04:24:06.088Z,8.17
2018-12-11T04:26:33.531Z,6.27
2018-12-11T04:29:00.983Z,5.80
2018-12-11T04:31:28.449Z,4.53
2018-12-11T04:33:55.995Z,5.13
2018-12-11T04:36:23.437Z,3.83
2018-12-11T04:38:50.867Z,4.97
2018-12-11T04:41:18.335Z,8.50
2018-12-11T04:43:45.771Z,7.17
2018-12-11T04:46:13.261Z,7.87
2018-12-11T04:48:40.778Z,6.20
2018-12-11T04:51:08.311Z,7.63
2018-12-11T04:53:35.746Z,5.80
2018-12-11T04:56:03.212Z,5.17
2018-12-11T04:58:30.654Z,12.97
2018-12-11T05:00:58.096Z,8.03
2018-12-11T05:03:25.545Z,12.70
2018-12-11T05:05:53.015Z,8.87
2018-12-11T05:08:20.449Z,9.07
2018-12-11T05:10:47.919Z,11.13
2018-12-11T05:13:15.383Z,12.13
2018-12-11T05:15:42.855Z,7.27
2018-12-11T05:18:10.286Z,9.83
2018-12-11T05:20:37.755Z,9.57
2018-12-11T05:23:05.217Z,7.30
2018-12-11T05:25:32.662Z,7.87
2018-12-11T05:28:00.119Z,11.87
2018-12-11T05:30:27.555Z,8.97
2018-12-11T05:32:54.998Z,8.37
2018-12-11T05:35:22.463Z,10.57
2018-12-11T05:37:49.960Z,10.70
2018-12-11T05:40:17.403Z,8.50
2018-12-11T05:42:44.846Z,8.50
2018-12-11T05:45:12.295Z,10.83
2018-12-11T05:47:39.727Z,4.63
2018-12-11T05:50:07.216Z,7.23
2018-12-11T05:52:34.718Z,14.10
2018-12-11T05:55:02.196Z,8.47
2018-12-11T05:57:29.639Z,11.50
2018-12-11T05:59:57.084Z,5.27
2018-12-11T06:02:24.520Z,12.10
2018-12-11T06:04:51.980Z,9.83
2018-12-11T06:07:20.243Z,9.57
2018-12-11T06:09:47.712Z,8.03
2018-12-11T06:12:15.175Z,4.93
2018-12-11T06:14:42.625Z,5.13
2018-12-11T06:17:10.058Z,7.80
2018-12-11T06:19:37.512Z,6.60
2018-12-11T06:22:04.994Z,7.50
2018-12-11T06:24:32.448Z,5.10
2018-12-11T06:26:59.914Z,10.17
2018-12-11T06:29:27.347Z,9.57
2018-12-11T06:31:54.823Z,11.93
2018-12-11T06:34:22.267Z,5.90
2018-12-11T06:36:49.739Z,9.53
2018-12-11T06:39:17.169Z,7.60
2018-12-11T06:41:44.612Z,10.10
2018-12-11T06:44:12.075Z,9.10
2018-12-11T06:46:39.513Z,5.20
2018-12-11T06:49:06.953Z,8.03
2018-12-11T06:51:34.395Z,10.30
2018-12-11T06:54:01.847Z,14.73
2018-12-11T06:56:29.283Z,9.97
2018-12-11T06:58:56.720Z,12.87
2018-12-11T07:01:24.171Z,9.60
2018-12-11T07:03:51.628Z,8.33
2018-12-11T07:06:19.100Z,11.03
2018-12-11T07:08:46.559Z,11.67
2018-12-11T07:11:14.001Z,6.80
2018-12-11T07:13:41.464Z,10.00
2018-12-11T07:16:08.912Z,10.10
2018-12-11T07:21:10.424Z,8.40
2018-12-11T07:23:37.963Z,10.97
2018-12-11T07:26:05.436Z,8.37
2018-12-11T07:28:32.903Z,9.77
2018-12-11T07:31:00.437Z,9.93
2018-12-11T07:33:27.920Z,11.13
2018-12-11T07:35:55.369Z,10.07
2018-12-11T07:38:22.808Z,10.00
2018-12-11T07:40:50.251Z,7.50
2018-12-11T07:43:17.692Z,5.60
2018-12-11T07:45:45.135Z,13.00
2018-12-11T07:48:12.575Z,7.90
2018-12-11T07:50:40.027Z,5.33
2018-12-11T07:53:07.465Z,8.47
2018-12-11T07:55:34.906Z,5.50
2018-12-11T07:58:02.380Z,8.63
2018-12-11T08:00:29.870Z,4.67
2018-12-11T08:02:57.299Z,9.40
2018-12-11T08:05:24.755Z,14.20
2018-12-11T08:07:52.193Z,5.83
2018-12-11T08:10:19.647Z,12.80
2018-12-11T08:12:47.102Z,5.33
2018-12-11T08:15:14.576Z,8.17
2018-12-11T08:17:42.003Z,8.23
2018-12-11T08:20:09.479Z,7.37
2018-12-11T08:22:36.951Z,5.27
2018-12-11T08:25:04.423Z,11.30
2018-12-11T08:27:31.911Z,9.07
2018-12-11T08:29:59.348Z,6.63
2018-12-11T08:32:26.790Z,11.20
2018-12-11T08:34:54.255Z,12.93
2018-12-11T08:37:21.695Z,7.17
2018-12-11T08:39:49.129Z,5.00
2018-12-11T08:42:16.575Z,7.87
2018-12-11T08:44:44.019Z,11.30
2018-12-11T08:47:11.467Z,8.47
2018-12-11T08:49:38.907Z,8.87
2018-12-11T08:52:06.346Z,7.93
2018-12-11T08:54:33.787Z,5.73
2018-12-11T08:57:01.245Z,7.10
2018-12-11T08:59:28.692Z,10.80
2018-12-11T09:01:56.165Z,9.43
2018-12-11T09:04:23.584Z,8.30
2018-12-11T09:06:51.029Z,6.97
2018-12-11T09:09:18.463Z,13.63
2018-12-11T09:11:45.935Z,6.30
2018-12-11T09:14:13.366Z,6.03
2018-12-11T09:16:40.807Z,9.33
2018-12-11T09:19:08.331Z,8.73
2018-12-11T09:21:35.780Z,9.80
2018-12-11T09:24:03.249Z,10.07
2018-12-11T09:26:30.703Z,7.87
2018-12-11T09:28:58.233Z,6.27
2018-12-11T09:31:25.699Z,7.03
2018-12-11T09:33:53.141Z,8.43
2018-12-11T09:36:20.611Z,8.20
2018-12-11T09:38:48.055Z,6.87
2018-12-11T09:41:15.551Z,7.90
2018-12-11T09:43:43.040Z,6.60
2018-12-11T09:46:10.501Z,14.40
2018-12-11T09:48:37.923Z,8.37
2018-12-11T09:51:05.415Z,9.50
2018-12-11T09:53:32.851Z,6.77
2018-12-11T09:56:00.291Z,6.97
2018-12-11T09:58:27.727Z,7.13
2018-12-11T10:00:55.168Z,6.40
2018-12-11T10:03:22.599Z,6.80
2018-12-11T10:05:50.035Z,6.00
2018-12-11T10:08:17.468Z,6.27
2018-12-11T10:10:44.935Z,5.80
2018-12-11T10:13:12.402Z,6.93
2018-12-11T10:15:39.839Z,5.60
2018-12-11T10:18:07.284Z,6.53
2018-12-11T10:20:34.745Z,9.10
2018-12-11T10:23:02.626Z,5.90
2018-12-11T10:25:30.089Z,9.03
2018-12-11T10:27:57.535Z,5.00
2018-12-11T10:30:26.932Z,6.10
2018-12-11T10:32:54.371Z,5.37
2018-12-11T10:35:21.798Z,8.33
2018-12-11T10:37:49.267Z,6.53
2018-12-11T10:40:16.730Z,11.00
2018-12-11T10:42:44.180Z,8.23
2018-12-11T10:45:11.607Z,6.50
2018-12-11T10:47:39.047Z,7.47
2018-12-11T10:50:06.530Z,7.63
2018-12-11T10:52:33.971Z,5.73
2018-12-11T10:55:01.407Z,8.07
2018-12-11T10:57:28.878Z,4.73
2018-12-11T10:59:56.325Z,5.40
2018-12-11T11:02:25.689Z,5.17
2018-12-11T11:04:53.119Z,6.27
2018-12-11T11:07:20.601Z,5.83
2018-12-11T11:09:48.062Z,6.80
2018-12-11T11:12:15.500Z,6.17
2018-12-11T11:14:43.022Z,4.40
2018-12-11T11:17:10.552Z,3.83
2018-12-11T11:19:37.976Z,5.97
2018-12-11T11:22:05.537Z,4.10
2018-12-11T11:24:32.980Z,5.70
2018-12-11T11:27:00.414Z,7.50
2018-12-11T11:29:27.858Z,3.77
2018-12-11T11:31:55.305Z,6.20
2018-12-11T11:34:22.773Z,4.63
2018-12-11T11:36:50.216Z,4.13
2018-12-11T11:39:17.664Z,6.53
2018-12-11T11:41:45.212Z,3.50
2018-12-11T11:44:12.672Z,5.20
2018-12-11T11:46:40.117Z,5.30
2018-12-11T11:49:07.555Z,5.93
2018-12-11T11:51:35.315Z,4.57
2018-12-11T11:54:02.755Z,5.73
2018-12-11T11:56:30.203Z,3.17
2018-12-11T11:58:57.657Z,5.57
2018-12-11T12:01:25.117Z,4.00
2018-12-11T12:03:52.565Z,4.17
2018-12-11T12:06:20.005Z,7.93
2018-12-11T12:08:47.480Z,3.23
2018-12-11T12:11:14.951Z,5.73
2018-12-11T12:13:42.399Z,5.23
2018-12-11T12:16:09.838Z,4.93
2018-12-11T12:18:37.277Z,4.70
2018-12-11T12:21:04.739Z,5.73
2018-12-11T12:23:32.222Z,3.57
2018-12-11T12:25:59.671Z,3.30
2018-12-11T12:28:27.175Z,6.23
2018-12-11T12:30:55.745Z,7.17
2018-12-11T12:33:23.202Z,5.13
2018-12-11T12:35:50.635Z,8.53
2018-12-11T12:38:18.113Z,5.70
2018-12-11T12:40:45.552Z,4.53
2018-12-11T12:43:12.993Z,4.30
2018-12-11T12:45:40.427Z,5.93
2018-12-11T12:48:07.872Z,5.87
2018-12-11T12:50:35.320Z,5.10
2018-12-11T12:53:02.774Z,3.30
2018-12-11T12:55:31.489Z,6.57
2018-12-11T12:57:59.146Z,6.00
2018-12-11T13:00:26.583Z,6.07
2018-12-11T13:02:54.093Z,6.70
2018-12-11T13:05:21.555Z,4.30
2018-12-11T13:07:49.056Z,5.63
2018-12-11T13:10:16.496Z,7.50
2018-12-11T13:12:43.975Z,4.53
2018-12-11T13:15:11.492Z,3.30
2018-12-11T13:17:41.253Z,3.80
2018-12-11T13:20:08.695Z,4.83
2018-12-11T13:22:36.138Z,5.67
2018-12-11T13:25:04.120Z,4.27
2018-12-11T13:27:31.565Z,5.43
2018-12-11T13:29:59.012Z,13.80
2018-12-11T13:32:26.479Z,8.50
2018-12-11T13:34:53.935Z,8.40
2018-12-11T13:37:21.495Z,8.57
2018-12-11T13:39:48.953Z,5.70
2018-12-11T13:42:16.394Z,6.00
2018-12-11T13:44:43.833Z,3.70
2018-12-11T13:47:11.400Z,5.20
2018-12-11T13:49:38.869Z,6.77
2018-12-11T13:52:06.316Z,7.37
2018-12-11T13:54:33.813Z,5.93
2018-12-11T13:57:01.351Z,4.90
2018-12-11T13:59:28.812Z,5.27
2018-12-11T14:01:56.252Z,6.17
2018-12-11T14:04:23.716Z,4.70
2018-12-11T14:06:51.188Z,4.30
2018-12-11T14:09:24.396Z,3.77
2018-12-11T14:11:51.859Z,6.13
2018-12-11T14:14:19.303Z,4.77
2018-12-11T14:16:46.767Z,6.83
2018-12-11T14:19:14.217Z,6.40
2018-12-11T14:21:41.652Z,4.90
2018-12-11T14:24:09.143Z,6.47
2018-12-11T14:26:36.639Z,7.07
2018-12-11T14:29:04.134Z,8.83
2018-12-11T14:31:31.625Z,7.53
2018-12-11T14:33:59.158Z,4.60
2018-12-11T14:36:26.600Z,5.87
2018-12-11T14:38:54.044Z,4.27
2018-12-11T14:41:21.643Z,6.43
2018-12-11T14:43:49.087Z,8.80
2018-12-11T14:46:16.566Z,4.73
2018-12-11T14:48:43.987Z,8.10
2018-12-11T14:51:11.419Z,6.30
2018-12-11T14:53:38.869Z,8.20
2018-12-11T14:56:06.314Z,8.80
2018-12-11T14:58:33.755Z,6.03
2018-12-11T15:01:01.211Z,4.13
2018-12-11T15:03:28.672Z,5.33
2018-12-11T15:05:56.111Z,4.87
2018-12-11T15:08:23.550Z,6.03
2018-12-11T15:10:50.997Z,8.13
2018-12-11T15:13:18.438Z,6.50
2018-12-11T15:15:45.888Z,3.97
2018-12-11T15:18:13.323Z,5.87
2018-12-11T15:20:40.766Z,7.53
2018-12-11T15:23:08.211Z,5.33
2018-12-11T15:25:35.714Z,14.50
2018-12-11T15:28:03.206Z,5.70
2018-12-11T15:30:30.639Z,9.73
2018-12-11T15:32:58.119Z,6.70
2018-12-11T15:35:25.572Z,8.07
2018-12-11T15:37:53.004Z,7.23
2018-12-11T15:40:20.490Z,7.03
2018-12-11T15:42:47.956Z,7.23
2018-12-11T15:45:15.452Z,5.83
2018-12-11T15:47:42.907Z,8.37
2018-12-11T15:50:10.358Z,6.53
2018-12-11T15:52:37.797Z,4.67
2018-12-11T15:55:05.882Z,5.63
2018-12-11T15:57:33.339Z,6.07
2018-12-11T16:00:00.779Z,5.73
2018-12-11T16:02:28.207Z,10.18
2018-12-11T16:04:55.655Z,8.10
2018-12-11T16:07:23.087Z,6.57
2018-12-11T16:09:50.537Z,8.37
2018-12-11T16:12:17.974Z,8.17
2018-12-11T16:14:45.435Z,7.03
2018-12-11T16:17:12.868Z,8.80
2018-12-11T16:19:40.307Z,7.40
2018-12-11T16:22:07.783Z,9.07
2018-12-11T16:24:35.248Z,9.53
2018-12-11T16:27:02.719Z,7.30
2018-12-11T16:29:30.178Z,6.27
2018-12-11T16:31:57.619Z,12.00
2018-12-11T16:34:25.060Z,10.57
2018-12-11T16:36:52.508Z,10.23
2018-12-11T16:39:19.943Z,7.00
2018-12-11T16:41:47.390Z,7.90
2018-12-11T16:44:14.852Z,8.57
2018-12-11T16:46:42.327Z,7.77
2018-12-11T16:49:09.767Z,9.57
2018-12-11T16:51:37.223Z,8.23
2018-12-11T16:54:04.659Z,6.67
2018-12-11T16:56:32.097Z,7.97
2018-12-11T16:58:59.531Z,8.90
2018-12-11T17:01:26.969Z,7.67
2018-12-11T17:03:54.419Z,10.63
2018-12-11T17:06:21.848Z,7.80
2018-12-11T17:08:49.285Z,8.47
2018-12-11T17:11:16.751Z,8.80
2018-12-11T17:13:44.183Z,9.20
2018-12-11T17:16:11.664Z,8.87
2018-12-11T17:18:39.169Z,6.50
2018-12-11T17:21:06.643Z,6.20
2018-12-11T17:23:34.076Z,7.20
2018-12-11T17:26:01.526Z,10.03
2018-12-11T17:28:28.963Z,11.50
2018-12-11T17:30:56.445Z,8.13
2018-12-11T17:33:23.875Z,8.57
2018-12-11T17:35:51.352Z,8.77
2018-12-11T17:38:18.894Z,10.50
2018-12-11T17:40:46.347Z,12.63
2018-12-11T17:43:13.792Z,7.60
2018-12-11T17:45:41.251Z,9.67
2018-12-11T17:48:09.431Z,9.67
2018-12-11T17:50:37.802Z,5.23
2018-12-11T17:53:05.235Z,8.90
2018-12-11T17:55:32.670Z,8.10
2018-12-11T17:58:00.112Z,6.60
2018-12-11T18:00:27.543Z,6.97
2018-12-11T18:02:55.016Z,7.80
2018-12-11T18:05:22.451Z,10.77
2018-12-11T18:07:49.891Z,9.03
2018-12-11T18:10:17.343Z,9.43
2018-12-11T18:12:44.781Z,8.17
2018-12-11T18:15:12.243Z,7.17
2018-12-11T18:17:39.687Z,7.20
2018-12-11T18:20:07.280Z,8.03
2018-12-11T18:22:34.755Z,10.53
2018-12-11T18:25:02.248Z,11.47
2018-12-11T18:27:29.695Z,12.53
2018-12-11T18:29:57.130Z,16.40
2018-12-11T18:32:25.171Z,23.07
2018-12-11T18:34:52.931Z,15.80
2018-12-11T18:37:20.398Z,21.17
2018-12-11T18:39:47.843Z,16.87
2018-12-11T18:42:15.315Z,26.13
2018-12-11T18:44:42.779Z,20.77
2018-12-11T18:47:10.228Z,19.03
2018-12-11T18:49:37.695Z,21.40
2018-12-11T18:52:05.174Z,17.97
2018-12-11T18:54:32.619Z,17.77
2018-12-11T18:57:00.088Z,18.63
2018-12-11T18:59:27.523Z,15.77
2018-12-11T19:01:54.999Z,16.60
2018-12-11T19:04:22.491Z,12.43
2018-12-11T19:06:49.976Z,16.53
2018-12-11T19:09:17.499Z,14.23
2018-12-11T19:11:44.967Z,14.83
2018-12-11T19:14:12.414Z,15.73
2018-12-11T19:16:39.871Z,9.37
2018-12-11T19:19:07.344Z,20.63
2018-12-11T19:21:34.794Z,10.97
2018-12-11T19:24:04.037Z,11.17
2018-12-11T19:26:31.582Z,10.57
2018-12-11T19:28:59.024Z,12.70
2018-12-11T19:31:26.491Z,14.63
2018-12-11T19:33:54.030Z,11.47
2018-12-11T19:36:21.526Z,10.90
2018-12-11T19:38:48.955Z,9.47
2018-12-11T19:41:16.611Z,8.07
2018-12-11T19:43:44.091Z,7.70
2018-12-11T19:46:11.555Z,11.23
2018-12-11T19:48:38.995Z,10.40
2018-12-11T19:51:06.433Z,8.40
2018-12-11T19:53:33.879Z,11.77
2018-12-11T19:56:01.322Z,10.50
2018-12-11T19:58:28.762Z,7.97
2018-12-11T20:00:56.196Z,7.47
2018-12-11T20:03:23.642Z,8.90
2018-12-11T20:05:51.099Z,8.93
2018-12-11T20:08:18.568Z,10.63
2018-12-11T20:10:47.991Z,9.70
2018-12-11T20:13:15.436Z,11.13
2018-12-11T20:15:43.000Z,12.60
2018-12-11T20:18:13.037Z,12.33
2018-12-11T20:20:39.867Z,13.33
2018-12-11T20:23:07.311Z,9.67
2018-12-11T20:25:34.780Z,15.17
2018-12-11T20:28:02.222Z,12.30
2018-12-11T20:30:29.671Z,16.27
2018-12-11T20:32:57.121Z,19.33
2018-12-11T20:35:24.564Z,17.77
2018-12-11T20:37:52.015Z,16.23
2018-12-11T20:40:19.492Z,20.83
2018-12-11T20:42:46.931Z,15.50
2018-12-11T20:45:14.395Z,16.23
2018-12-11T20:47:41.843Z,13.83
2018-12-11T20:50:09.330Z,14.00
2018-12-11T20:52:36.823Z,16.63
2018-12-11T20:55:04.444Z,14.77
2018-12-11T20:57:31.880Z,13.80
2018-12-11T20:59:59.320Z,13.40
2018-12-11T21:02:26.756Z,12.93
2018-12-11T21:04:54.195Z,11.53
2018-12-11T21:07:21.639Z,13.80
2018-12-11T21:09:49.108Z,15.20
2018-12-11T21:12:16.539Z,14.03
2018-12-11T21:14:44.002Z,14.57
2018-12-11T21:17:11.435Z,16.60
2018-12-11T21:19:38.884Z,15.23
2018-12-11T21:22:06.332Z,15.73
2018-12-11T21:24:33.837Z,14.67
2018-12-11T21:27:01.303Z,14.67
2018-12-11T21:29:28.784Z,11.77
2018-12-11T21:31:56.218Z,12.77
2018-12-11T21:34:23.664Z,10.43
2018-12-11T21:36:51.132Z,12.47
2018-12-11T21:39:18.586Z,9.60
2018-12-11T21:41:46.029Z,11.97
2018-12-11T21:44:13.532Z,12.00
2018-12-11T21:46:41.088Z,11.33
2018-12-11T21:49:08.539Z,13.37
2018-12-11T21:51:36.021Z,16.73
2018-12-11T21:54:03.488Z,11.13
2018-12-11T21:56:30.959Z,16.83
2018-12-11T21:58:58.400Z,12.33
2018-12-11T22:01:25.891Z,15.67
2018-12-11T22:03:53.337Z,12.90
2018-12-11T22:06:20.887Z,15.07
2018-12-11T22:08:48.339Z,13.60
2018-12-11T22:11:15.778Z,11.37
2018-12-11T22:13:43.231Z,14.13
2018-12-11T22:16:10.680Z,14.33
2018-12-11T22:18:38.134Z,11.20
2018-12-11T22:21:05.569Z,15.23
2018-12-11T22:23:33.010Z,13.27
2018-12-11T22:26:00.447Z,12.30
2018-12-11T22:28:27.892Z,16.47
2018-12-11T22:30:55.336Z,16.37
2018-12-11T22:33:22.805Z,16.07
2018-12-11T22:35:50.251Z,15.80
2018-12-11T22:38:17.728Z,12.20
2018-12-11T22:40:45.179Z,15.23
2018-12-11T22:43:12.617Z,14.07
2018-12-11T22:45:40.075Z,11.17
2018-12-11T22:48:07.505Z,10.03
2018-12-11T22:50:34.957Z,9.68
2018-12-11T22:53:02.403Z,15.50
2018-12-11T22:55:29.889Z,10.83
2018-12-11T22:57:57.330Z,12.63
2018-12-11T23:00:25.026Z,14.53
2018-12-11T23:02:52.469Z,11.07
2018-12-11T23:05:19.951Z,19.40
2018-12-11T23:07:47.423Z,15.17
2018-12-11T23:10:14.873Z,14.20
2018-12-11T23:12:42.312Z,15.17
2018-12-11T23:15:09.787Z,11.73
2018-12-11T23:17:37.261Z,12.93
2018-12-11T23:20:04.771Z,13.70
2018-12-11T23:22:32.219Z,14.27
2018-12-11T23:24:59.816Z,16.00
2018-12-11T23:27:27.261Z,12.97
2018-12-11T23:29:54.724Z,13.20
2018-12-11T23:32:22.199Z,13.10
2018-12-11T23:34:51.292Z,13.30
2018-12-11T23:37:18.766Z,12.70
2018-12-11T23:39:46.227Z,13.15
2018-12-11T23:42:13.684Z,14.33
2018-12-11T23:44:41.127Z,10.67
2018-12-11T23:47:08.572Z,11.70
2018-12-11T23:49:36.020Z,12.60
2018-12-11T23:52:03.518Z,12.33
2018-12-11T23:54:30.967Z,12.13
2018-12-11T23:56:58.455Z,9.75
2018-12-11T23:59:29.165Z,13.40
